createdAt,value
2022-11-15T00:01:31.311Z,38.45
2022-11-15T00:03:57.671Z,38.44
2022-11-15T00:06:24.049Z,38.41
2022-11-15T00:08:50.395Z,38.51
2022-11-15T00:11:16.746Z,38.49
2022-11-15T00:13:43.089Z,38.42
2022-11-15T00:16:09.448Z,38.46
2022-11-15T00:18:36.997Z,38.45
2022-11-15T00:21:02.135Z,38.51
2022-11-15T00:23:28.664Z,38.47
2022-11-15T00:25:57.269Z,38.49
2022-11-15T00:28:23.642Z,38.52
2022-11-15T00:30:49.996Z,38.54
2022-11-15T00:33:16.332Z,38.54
2022-11-15T00:35:42.683Z,38.57
2022-11-15T00:38:09.026Z,38.58
2022-11-15T00:40:35.375Z,38.60
2022-11-15T00:43:01.717Z,38.63
2022-11-15T00:45:28.079Z,38.61
2022-11-15T00:47:54.416Z,38.67
2022-11-15T00:50:20.771Z,38.75
2022-11-15T00:52:47.153Z,38.69
2022-11-15T00:55:13.508Z,38.70
2022-11-15T00:57:39.844Z,38.63
2022-11-15T01:00:06.224Z,38.67
2022-11-15T01:02:32.568Z,38.69
2022-11-15T01:04:58.927Z,38.76
2022-11-15T01:07:25.332Z,38.75
2022-11-15T01:09:51.623Z,38.74
2022-11-15T01:12:17.972Z,38.71
2022-11-15T01:14:44.309Z,38.75
2022-11-15T01:17:10.652Z,38.79
2022-11-15T01:19:37.011Z,38.79
2022-11-15T01:22:04.787Z,38.77
2022-11-15T01:24:29.710Z,38.78
2022-11-15T01:26:56.055Z,38.80
2022-11-15T01:29:22.437Z,38.82
2022-11-15T01:31:48.779Z,38.80
2022-11-15T01:34:15.157Z,38.86
2022-11-15T01:36:41.499Z,38.84
2022-11-15T01:39:07.875Z,38.88
2022-11-15T01:41:34.253Z,38.91
2022-11-15T01:44:00.601Z,38.90
2022-11-15T01:46:26.943Z,38.89
2022-11-15T01:48:53.296Z,38.88
2022-11-15T01:51:19.637Z,38.92
2022-11-15T01:53:45.987Z,38.91
2022-11-15T01:56:12.358Z,38.92
2022-11-15T01:58:38.716Z,38.95
2022-11-15T02:01:05.139Z,38.94
2022-11-15T02:03:31.666Z,38.95
2022-11-15T02:05:57.756Z,38.98
2022-11-15T02:08:24.097Z,39.00
2022-11-15T02:10:50.439Z,39.01
2022-11-15T02:13:16.792Z,39.02
2022-11-15T02:15:43.135Z,39.00
2022-11-15T02:18:09.481Z,39.03
2022-11-15T02:20:35.831Z,39.03
2022-11-15T02:23:03.389Z,39.08
2022-11-15T02:25:28.585Z,39.05
2022-11-15T02:27:54.927Z,39.07
2022-11-15T02:30:21.270Z,39.10
2022-11-15T02:32:47.620Z,39.10
2022-11-15T02:35:13.967Z,39.11
2022-11-15T02:37:40.318Z,39.11
2022-11-15T02:40:06.662Z,39.13
2022-11-15T02:42:33.018Z,39.17
2022-11-15T02:44:59.369Z,39.19
2022-11-15T02:47:25.715Z,39.18
2022-11-15T02:49:52.058Z,39.16
2022-11-15T02:52:18.404Z,39.22
2022-11-15T02:54:44.781Z,39.20
2022-11-15T02:57:11.127Z,39.25
2022-11-15T02:59:37.467Z,39.26
2022-11-15T03:02:03.817Z,39.22
2022-11-15T03:04:30.161Z,39.25
2022-11-15T03:06:56.528Z,39.29
2022-11-15T03:09:23.078Z,39.12
2022-11-15T03:11:49.430Z,38.89
2022-11-15T03:14:15.765Z,38.65
2022-11-15T03:16:42.123Z,38.54
2022-11-15T03:19:08.468Z,38.34
2022-11-15T03:21:34.823Z,38.22
2022-11-15T03:24:01.162Z,38.13
2022-11-15T03:26:27.508Z,38.03
2022-11-15T03:28:53.852Z,37.95
2022-11-15T03:31:20.211Z,37.79
2022-11-15T03:33:46.555Z,37.71
2022-11-15T03:36:12.909Z,37.58
2022-11-15T03:38:39.342Z,37.46
2022-11-15T03:41:05.607Z,37.29
2022-11-15T03:43:32.231Z,37.25
2022-11-15T03:45:58.299Z,37.20
2022-11-15T03:48:24.643Z,37.16
2022-11-15T03:50:50.994Z,37.14
2022-11-15T03:53:17.339Z,37.07
2022-11-15T03:55:43.681Z,36.98
2022-11-15T03:58:10.024Z,36.89
2022-11-15T04:00:36.377Z,36.80
2022-11-15T04:03:02.734Z,36.73
2022-11-15T04:05:29.086Z,36.63
2022-11-15T04:07:55.457Z,36.67
2022-11-15T04:10:21.811Z,36.64
2022-11-15T04:12:48.157Z,36.59
2022-11-15T04:15:14.495Z,36.58
2022-11-15T04:17:40.874Z,36.58
2022-11-15T04:20:07.303Z,36.71
2022-11-15T04:22:33.637Z,36.48
2022-11-15T04:24:59.991Z,36.52
2022-11-15T04:27:26.334Z,36.34
2022-11-15T04:29:52.682Z,36.34
2022-11-15T04:32:19.020Z,36.29
2022-11-15T04:34:45.364Z,36.27
2022-11-15T04:37:11.710Z,36.20
2022-11-15T04:39:38.054Z,36.16
2022-11-15T04:42:04.433Z,36.16
2022-11-15T04:44:30.779Z,36.07
2022-11-15T04:46:57.118Z,35.99
2022-11-15T04:49:23.466Z,36.05
2022-11-15T04:51:49.811Z,35.96
2022-11-15T04:54:16.153Z,35.97
2022-11-15T04:56:42.501Z,35.91
2022-11-15T04:59:08.849Z,35.86
2022-11-15T05:01:35.470Z,35.80
2022-11-15T05:04:01.548Z,35.78
2022-11-15T05:06:27.885Z,35.75
2022-11-15T05:08:54.265Z,35.75
2022-11-15T05:11:20.610Z,35.65
2022-11-15T05:13:46.997Z,35.60
2022-11-15T05:16:13.376Z,35.58
2022-11-15T05:18:39.725Z,35.53
2022-11-15T05:21:06.064Z,35.52
2022-11-15T05:23:32.737Z,35.47
2022-11-15T05:25:58.753Z,35.40
2022-11-15T05:28:25.094Z,35.29
2022-11-15T05:30:51.434Z,35.18
2022-11-15T05:33:17.784Z,35.19
2022-11-15T05:35:44.122Z,35.08
2022-11-15T05:38:10.474Z,35.08
2022-11-15T05:40:36.816Z,35.04
2022-11-15T05:43:03.164Z,34.98
2022-11-15T05:45:29.506Z,34.86
2022-11-15T05:47:55.883Z,34.87
2022-11-15T05:50:22.221Z,35.09
2022-11-15T05:52:48.572Z,34.97
2022-11-15T05:55:14.903Z,34.99
2022-11-15T05:57:41.251Z,34.93
2022-11-15T06:00:07.613Z,34.85
2022-11-15T06:02:34.054Z,34.83
2022-11-15T06:05:00.603Z,34.83
2022-11-15T06:07:27.019Z,34.70
2022-11-15T06:09:53.289Z,34.70
2022-11-15T06:12:19.639Z,34.68
2022-11-15T06:14:45.982Z,34.61
2022-11-15T06:17:12.328Z,34.63
2022-11-15T06:19:38.679Z,34.61
2022-11-15T06:22:05.026Z,34.50
2022-11-15T06:24:31.375Z,34.46
2022-11-15T06:26:57.728Z,34.30
2022-11-15T06:29:24.105Z,34.42
2022-11-15T06:31:50.452Z,34.34
2022-11-15T06:34:16.799Z,34.30
2022-11-15T06:36:43.151Z,34.34
2022-11-15T06:39:09.504Z,34.32
2022-11-15T06:41:35.872Z,34.18
2022-11-15T06:44:02.228Z,34.24
2022-11-15T06:46:28.577Z,34.37
2022-11-15T06:48:54.913Z,34.21
2022-11-15T06:51:21.281Z,34.17
2022-11-15T06:53:47.612Z,34.31
2022-11-15T06:56:16.011Z,34.29
2022-11-15T06:58:40.399Z,34.14
2022-11-15T07:01:06.837Z,34.01
2022-11-15T07:03:33.423Z,34.11
2022-11-15T07:06:05.802Z,34.08
2022-11-15T07:08:25.809Z,34.16
2022-11-15T07:10:52.159Z,34.17
2022-11-15T07:13:18.502Z,34.35
2022-11-15T07:15:44.854Z,34.39
2022-11-15T07:18:11.198Z,34.42
2022-11-15T07:20:37.547Z,34.44
2022-11-15T07:23:03.898Z,34.48
2022-11-15T07:25:30.269Z,34.54
2022-11-15T07:27:56.616Z,34.42
2022-11-15T07:30:22.971Z,34.24
2022-11-15T07:32:49.393Z,34.30
2022-11-15T07:35:15.795Z,34.25
2022-11-15T07:37:42.147Z,34.24
2022-11-15T07:40:08.532Z,34.18
2022-11-15T07:42:34.871Z,34.26
2022-11-15T07:45:01.224Z,34.17
2022-11-15T07:47:28.626Z,34.20
2022-11-15T07:49:54.944Z,34.11
2022-11-15T07:52:21.301Z,34.28
2022-11-15T07:54:47.652Z,34.04
2022-11-15T07:57:14.006Z,34.16
2022-11-15T07:59:40.353Z,34.46
2022-11-15T08:02:06.824Z,34.38
2022-11-15T08:04:33.043Z,34.29
2022-11-15T08:06:59.405Z,34.33
2022-11-15T08:09:25.789Z,34.37
2022-11-15T08:11:52.142Z,34.38
2022-11-15T08:14:18.488Z,34.32
2022-11-15T08:16:44.836Z,34.48
2022-11-15T08:19:11.192Z,34.49
2022-11-15T08:21:37.542Z,34.55
2022-11-15T08:24:03.933Z,34.33
2022-11-15T08:26:30.322Z,33.62
2022-11-15T08:28:56.679Z,33.72
2022-11-15T08:31:23.024Z,33.06
2022-11-15T08:33:49.375Z,33.31
2022-11-15T08:36:15.726Z,33.22
2022-11-15T08:38:42.079Z,32.88
2022-11-15T08:41:08.421Z,32.69
2022-11-15T08:43:35.051Z,32.69
2022-11-15T08:46:01.154Z,33.34
2022-11-15T08:48:27.504Z,32.96
2022-11-15T08:50:53.859Z,33.41
2022-11-15T08:53:20.206Z,33.57
2022-11-15T08:55:46.558Z,33.48
2022-11-15T08:58:12.909Z,33.88
2022-11-15T09:00:39.262Z,33.51
2022-11-15T09:03:05.625Z,33.39
2022-11-15T09:05:31.994Z,33.44
2022-11-15T09:07:58.354Z,33.39
2022-11-15T09:10:24.739Z,33.84
2022-11-15T09:12:51.103Z,33.60
2022-11-15T09:15:17.480Z,34.07
2022-11-15T09:17:43.805Z,33.71
2022-11-15T09:20:10.146Z,33.46
2022-11-15T09:22:36.505Z,33.46
2022-11-15T09:25:04.486Z,33.34
2022-11-15T09:27:29.207Z,33.54
2022-11-15T09:29:55.600Z,33.63
2022-11-15T09:32:21.935Z,33.95
2022-11-15T09:34:48.291Z,33.73
2022-11-15T09:37:14.641Z,33.95
2022-11-15T09:39:40.989Z,33.68
2022-11-15T09:42:07.336Z,33.68
2022-11-15T09:44:33.688Z,33.72
2022-11-15T09:47:00.043Z,33.78
2022-11-15T09:49:26.390Z,33.78
2022-11-15T09:51:52.750Z,33.64
2022-11-15T09:54:51.166Z,33.41
2022-11-15T09:56:45.519Z,34.25
2022-11-15T09:59:11.813Z,33.38
2022-11-15T10:01:38.216Z,33.38
2022-11-15T10:04:10.553Z,33.82
2022-11-15T10:06:30.953Z,33.82
2022-11-15T10:08:57.302Z,33.61
2022-11-15T10:11:37.372Z,33.53
2022-11-15T10:13:50.019Z,33.53
2022-11-15T10:16:16.363Z,33.71
2022-11-15T10:18:42.722Z,33.48
2022-11-15T10:21:09.092Z,33.32
2022-11-15T10:23:35.441Z,33.27
2022-11-15T10:26:06.555Z,33.03
2022-11-15T10:28:28.190Z,33.55
2022-11-15T10:30:54.538Z,34.36
2022-11-15T10:33:20.900Z,33.47
2022-11-15T10:35:47.264Z,33.54
2022-11-15T10:38:13.630Z,33.35
2022-11-15T10:40:40.021Z,33.93
2022-11-15T10:43:06.316Z,33.36
2022-11-15T10:45:32.655Z,33.36
2022-11-15T10:48:01.815Z,33.50
2022-11-15T10:50:28.173Z,33.44
2022-11-15T10:52:54.509Z,33.44
2022-11-15T10:55:20.850Z,33.59
2022-11-15T10:57:47.202Z,33.26
2022-11-15T11:00:13.547Z,32.96
2022-11-15T11:02:39.895Z,33.83
2022-11-15T11:05:06.243Z,33.96
2022-11-15T11:07:32.689Z,33.60
2022-11-15T11:09:58.938Z,33.66
2022-11-15T11:12:25.307Z,33.66
2022-11-15T11:14:51.657Z,33.70
2022-11-15T11:17:18.015Z,33.49
2022-11-15T11:19:44.358Z,33.77
2022-11-15T11:22:10.694Z,33.74
2022-11-15T11:24:37.052Z,33.88
2022-11-15T11:27:03.396Z,33.88
2022-11-15T11:29:29.752Z,34.15
2022-11-15T11:31:56.085Z,34.06
2022-11-15T11:34:22.439Z,34.06
2022-11-15T11:36:48.798Z,34.08
2022-11-15T11:39:15.149Z,34.41
2022-11-15T11:41:41.509Z,34.41
2022-11-15T11:44:07.858Z,33.98
2022-11-15T11:46:34.216Z,33.98
2022-11-15T11:49:00.558Z,34.22
2022-11-15T11:51:26.912Z,33.52
2022-11-15T11:53:53.276Z,34.05
2022-11-15T11:56:19.633Z,34.05
2022-11-15T11:58:45.979Z,34.25
2022-11-15T12:01:13.019Z,34.21
2022-11-15T12:03:38.677Z,34.50
2022-11-15T12:06:05.070Z,34.18
2022-11-15T12:08:31.830Z,34.64
2022-11-15T12:10:57.867Z,34.81
2022-11-15T12:13:24.208Z,34.74
2022-11-15T12:15:50.579Z,34.89
2022-11-15T12:18:16.919Z,34.96
2022-11-15T12:20:43.272Z,34.91
2022-11-15T12:23:09.613Z,35.13
2022-11-15T12:25:35.960Z,35.02
2022-11-15T12:28:02.304Z,35.09
2022-11-15T12:30:28.729Z,35.06
2022-11-15T12:32:55.090Z,35.04
2022-11-15T12:35:21.457Z,35.09
2022-11-15T12:37:47.804Z,35.09
2022-11-15T12:40:14.154Z,35.08
2022-11-15T12:42:40.526Z,35.35
2022-11-15T12:45:06.870Z,34.96
2022-11-15T12:47:33.214Z,35.31
2022-11-15T12:49:59.587Z,35.84
2022-11-15T12:52:25.944Z,35.84
2022-11-15T12:54:52.293Z,35.60
2022-11-15T12:57:18.641Z,35.62
2022-11-15T12:59:45.021Z,35.62
2022-11-15T13:02:11.372Z,35.59
2022-11-15T13:04:37.723Z,35.59
2022-11-15T13:07:04.159Z,35.51
2022-11-15T13:09:30.433Z,35.52
2022-11-15T13:11:56.847Z,35.14
2022-11-15T13:14:23.197Z,35.55
2022-11-15T13:16:49.528Z,35.55
2022-11-15T13:19:15.894Z,35.45
2022-11-15T13:21:42.240Z,35.35
2022-11-15T13:24:08.589Z,35.32
2022-11-15T13:26:34.988Z,35.43
2022-11-15T13:29:01.334Z,35.40
2022-11-15T13:31:27.687Z,35.38
2022-11-15T13:33:54.039Z,35.39
2022-11-15T13:36:21.620Z,35.61
2022-11-15T13:38:46.758Z,35.35
2022-11-15T13:41:14.458Z,35.35
2022-11-15T13:43:39.485Z,35.39
2022-11-15T13:46:05.857Z,35.39
2022-11-15T13:48:32.467Z,35.40
2022-11-15T13:50:58.537Z,35.40
2022-11-15T13:53:24.894Z,35.54
2022-11-15T13:55:51.239Z,35.53
2022-11-15T13:58:21.457Z,35.41
2022-11-15T14:00:43.946Z,35.35
2022-11-15T14:03:10.320Z,35.82
2022-11-15T14:05:36.664Z,35.52
2022-11-15T14:08:03.014Z,35.30
2022-11-15T14:10:29.355Z,35.30
2022-11-15T14:12:55.713Z,34.79
2022-11-15T14:15:22.053Z,34.79
2022-11-15T14:17:50.238Z,35.24
2022-11-15T14:22:57.038Z,35.48
2022-11-15T14:25:23.390Z,35.48
2022-11-15T14:27:49.746Z,35.30
2022-11-15T14:30:16.099Z,35.30
2022-11-15T14:32:42.445Z,35.38
2022-11-15T14:35:08.814Z,35.86
2022-11-15T14:37:35.148Z,35.86
2022-11-15T14:40:01.817Z,35.65
2022-11-15T14:42:28.161Z,35.57
2022-11-15T14:44:54.511Z,35.62
2022-11-15T14:47:20.856Z,35.59
2022-11-15T14:49:47.217Z,35.47
2022-11-15T14:52:13.580Z,35.66
2022-11-15T14:54:39.920Z,35.66
2022-11-15T14:57:06.278Z,35.73
2022-11-15T14:59:32.638Z,35.73
2022-11-15T15:01:59.031Z,35.53
2022-11-15T15:04:26.601Z,35.53
2022-11-15T15:06:51.788Z,35.52
2022-11-15T15:09:18.125Z,35.57
2022-11-15T15:11:44.492Z,35.53
2022-11-15T15:14:10.869Z,35.51
2022-11-15T15:16:37.201Z,35.60
2022-11-15T15:19:03.562Z,35.56
2022-11-15T15:21:36.543Z,35.37
2022-11-15T15:23:56.265Z,35.37
2022-11-15T15:26:22.619Z,35.34
2022-11-15T15:28:52.793Z,35.45
2022-11-15T15:31:17.781Z,35.49
2022-11-15T15:33:44.138Z,35.55
2022-11-15T15:36:10.475Z,35.44
2022-11-15T15:38:36.824Z,35.66
2022-11-15T15:41:03.166Z,36.03
2022-11-15T15:43:29.528Z,35.66
2022-11-15T15:45:55.875Z,35.08
2022-11-15T15:48:22.253Z,35.08
2022-11-15T15:50:48.597Z,34.98
2022-11-15T15:53:14.954Z,34.98
2022-11-15T15:55:41.300Z,35.28
2022-11-15T15:58:07.657Z,35.32
2022-11-15T16:00:33.996Z,35.09
2022-11-15T16:03:00.390Z,35.09
2022-11-15T16:05:26.739Z,35.19
2022-11-15T16:07:53.088Z,35.22
2022-11-15T16:10:19.481Z,35.15
2022-11-15T16:12:45.831Z,35.07
2022-11-15T16:15:12.169Z,35.09
2022-11-15T16:17:38.559Z,35.07
2022-11-15T16:20:06.263Z,35.00
2022-11-15T16:22:31.273Z,35.03
2022-11-15T16:24:57.609Z,35.13
2022-11-15T16:27:23.958Z,35.06
2022-11-15T16:29:50.301Z,34.98
2022-11-15T16:32:16.752Z,34.91
2022-11-15T16:34:48.545Z,34.94
2022-11-15T16:37:09.353Z,34.84
2022-11-15T16:39:35.712Z,34.87
2022-11-15T16:42:02.063Z,34.79
2022-11-15T16:44:28.409Z,34.71
2022-11-15T16:46:54.761Z,34.71
2022-11-15T16:49:21.103Z,34.71
2022-11-15T16:51:47.469Z,34.67
2022-11-15T16:54:13.806Z,34.84
2022-11-15T16:56:40.147Z,34.67
2022-11-15T16:59:06.497Z,34.79
2022-11-15T17:01:32.935Z,34.56
2022-11-15T17:03:59.234Z,34.59
2022-11-15T17:06:25.609Z,34.59
2022-11-15T17:08:51.922Z,34.63
2022-11-15T17:11:18.273Z,34.56
2022-11-15T17:13:44.654Z,34.68
2022-11-15T17:16:10.999Z,34.54
2022-11-15T17:18:37.352Z,34.50
2022-11-15T17:21:03.703Z,34.51
2022-11-15T17:23:30.043Z,34.50
2022-11-15T17:26:00.849Z,34.48
2022-11-15T17:28:22.774Z,34.48
2022-11-15T17:30:49.128Z,34.47
2022-11-15T17:33:15.477Z,34.50
2022-11-15T17:35:41.838Z,34.45
2022-11-15T17:38:08.182Z,34.54
2022-11-15T17:40:34.532Z,34.43
2022-11-15T17:43:00.872Z,34.40
2022-11-15T17:45:27.231Z,34.43
2022-11-15T17:47:53.607Z,34.42
2022-11-15T17:50:19.958Z,34.44
2022-11-15T17:52:46.307Z,34.43
2022-11-15T17:55:12.669Z,34.45
2022-11-15T17:57:39.027Z,34.44
2022-11-15T18:00:05.368Z,34.47
2022-11-15T18:02:31.703Z,34.39
2022-11-15T18:04:58.052Z,34.39
2022-11-15T18:07:24.470Z,34.39
2022-11-15T18:09:50.789Z,34.39
2022-11-15T18:12:17.142Z,34.41
2022-11-15T18:14:43.511Z,34.44
2022-11-15T18:17:09.849Z,34.38
2022-11-15T18:19:36.205Z,34.45
2022-11-15T18:22:02.546Z,34.40
2022-11-15T18:24:28.898Z,34.38
2022-11-15T18:26:55.246Z,34.38
2022-11-15T18:29:21.630Z,34.31
2022-11-15T18:31:48.020Z,34.41
2022-11-15T18:34:14.324Z,34.39
2022-11-15T18:36:40.672Z,34.36
2022-11-15T18:39:07.033Z,34.36
2022-11-15T18:41:33.395Z,34.34
2022-11-15T18:43:59.749Z,34.37
2022-11-15T18:46:26.148Z,34.34
2022-11-15T18:48:52.493Z,34.37
2022-11-15T18:51:18.865Z,34.35
2022-11-15T18:53:45.213Z,34.35
2022-11-15T18:56:11.563Z,34.37
2022-11-15T18:58:37.946Z,34.26
2022-11-15T19:01:04.381Z,34.24
2022-11-15T19:03:30.675Z,34.23
2022-11-15T19:05:57.049Z,34.31
2022-11-15T19:08:23.401Z,34.50
2022-11-15T19:10:50.968Z,34.62
2022-11-15T19:13:16.133Z,34.70
2022-11-15T19:15:42.471Z,34.79
2022-11-15T19:18:08.819Z,34.85
2022-11-15T19:20:35.194Z,34.96
2022-11-15T19:23:01.545Z,35.03
2022-11-15T19:25:27.885Z,35.12
2022-11-15T19:27:54.242Z,35.18
2022-11-15T19:30:20.582Z,35.25
2022-11-15T19:32:46.951Z,35.36
2022-11-15T19:35:13.274Z,35.41
2022-11-15T19:37:39.625Z,35.57
2022-11-15T19:40:05.962Z,35.54
2022-11-15T19:42:32.309Z,35.64
2022-11-15T19:44:58.655Z,35.68
2022-11-15T19:47:25.013Z,35.62
2022-11-15T19:49:51.354Z,35.69
2022-11-15T19:52:17.708Z,35.74
2022-11-15T19:54:44.095Z,35.78
2022-11-15T19:57:10.448Z,35.79
2022-11-15T19:59:36.788Z,35.86
2022-11-15T20:02:03.142Z,35.88
2022-11-15T20:04:29.487Z,35.93
2022-11-15T20:06:55.892Z,36.04
2022-11-15T20:09:22.204Z,36.03
2022-11-15T20:11:48.555Z,36.03
2022-11-15T20:14:14.890Z,36.11
2022-11-15T20:16:41.243Z,36.16
2022-11-15T20:19:07.591Z,36.22
2022-11-15T20:21:33.940Z,36.23
2022-11-15T20:24:00.283Z,36.24
2022-11-15T20:26:26.640Z,36.30
2022-11-15T20:28:52.979Z,36.31
2022-11-15T20:31:19.331Z,36.33
2022-11-15T20:33:45.680Z,36.38
2022-11-15T20:36:12.030Z,36.38
2022-11-15T20:38:38.379Z,36.43
2022-11-15T20:41:04.723Z,36.50
2022-11-15T20:43:31.097Z,36.52
2022-11-15T20:45:57.522Z,36.51
2022-11-15T20:48:23.900Z,36.58
2022-11-15T20:50:50.250Z,36.64
2022-11-15T20:53:16.599Z,36.65
2022-11-15T20:55:42.937Z,36.69
2022-11-15T20:58:09.283Z,36.71
2022-11-15T21:00:35.632Z,36.71
2022-11-15T21:03:01.975Z,36.75
2022-11-15T21:05:28.323Z,36.83
2022-11-15T21:07:54.677Z,36.83
2022-11-15T21:10:21.014Z,36.84
2022-11-15T21:12:47.358Z,36.90
2022-11-15T21:15:13.696Z,36.91
2022-11-15T21:17:40.046Z,36.92
2022-11-15T21:20:06.395Z,36.96
2022-11-15T21:22:32.746Z,36.96
2022-11-15T21:24:59.097Z,36.99
2022-11-15T21:27:25.435Z,37.05
2022-11-15T21:29:51.804Z,37.08
2022-11-15T21:32:18.156Z,37.12
2022-11-15T21:34:44.502Z,37.14
2022-11-15T21:37:10.846Z,37.15
2022-11-15T21:39:37.190Z,37.20
2022-11-15T21:42:03.547Z,37.23
2022-11-15T21:44:29.885Z,37.19
2022-11-15T21:46:56.239Z,37.23
2022-11-15T21:49:22.636Z,37.27
2022-11-15T21:51:48.982Z,37.34
2022-11-15T21:54:15.323Z,37.37
2022-11-15T21:56:41.673Z,37.39
2022-11-15T21:59:08.018Z,37.40
2022-11-15T22:01:34.397Z,37.46
2022-11-15T22:04:00.715Z,37.49
2022-11-15T22:06:27.058Z,37.48
2022-11-15T22:08:53.400Z,37.48
2022-11-15T22:11:19.752Z,37.49
2022-11-15T22:13:46.096Z,37.52
2022-11-15T22:16:12.447Z,37.54
2022-11-15T22:18:39.206Z,37.61
2022-11-15T22:21:05.139Z,37.64
2022-11-15T22:23:31.525Z,37.64
2022-11-15T22:25:57.882Z,37.63
2022-11-15T22:28:24.226Z,37.65
2022-11-15T22:30:50.575Z,37.64
2022-11-15T22:33:16.921Z,37.68
2022-11-15T22:35:43.268Z,37.69
2022-11-15T22:38:10.852Z,37.70
2022-11-15T22:40:35.961Z,37.76
2022-11-15T22:43:02.307Z,37.74
2022-11-15T22:45:28.658Z,37.75
2022-11-15T22:47:55.002Z,37.78
2022-11-15T22:50:21.353Z,37.86
2022-11-15T22:52:47.688Z,37.89
2022-11-15T22:55:14.049Z,37.86
2022-11-15T22:57:40.396Z,37.86
2022-11-15T23:00:06.747Z,37.92
2022-11-15T23:02:33.090Z,37.96
2022-11-15T23:04:59.433Z,37.95
2022-11-15T23:07:25.813Z,37.97
2022-11-15T23:09:52.418Z,38.00
2022-11-15T23:12:18.471Z,38.02
2022-11-15T23:14:44.817Z,38.04
2022-11-15T23:17:11.159Z,38.00
2022-11-15T23:19:37.504Z,38.04
2022-11-15T23:22:03.851Z,38.03
2022-11-15T23:24:30.235Z,38.10
2022-11-15T23:26:56.568Z,38.09
2022-11-15T23:29:22.937Z,38.12
2022-11-15T23:32:00.726Z,38.13
2022-11-15T23:34:21.216Z,38.18
2022-11-15T23:36:41.984Z,38.22
2022-11-15T23:39:08.329Z,38.26
2022-11-15T23:41:34.674Z,38.20
2022-11-15T23:44:01.071Z,38.24
2022-11-15T23:46:27.380Z,38.26
2022-11-15T23:48:53.740Z,38.32
2022-11-15T23:51:20.086Z,38.29
2022-11-15T23:53:46.427Z,38.28
2022-11-15T23:56:12.766Z,38.26
2022-11-15T23:58:39.114Z,38.29
